Hythe, Canada
Current Conditions -  °F | °C
As of 1:00 PM on Sunday 23 Nov 2014 (Local Time) from CYQU Reporting Station
Light Snow Light Snow  
Wind Chill: 12°   Ceiling: 2000
Heat Index: 12°   Visibility: 15mi
Dew Point:   Wind: 0mph
Humidity: 85%   Direction: NA
Pressure: 29.65"   Gusts: NA
Location:  55.32°N, 119.57°W
Report Text: CYQU 232000Z 00000KT 15SM -SN BKN020 OVC040 M11/M13 A2965 RMK SC6SC2 SLP091
Loading
Personal Weather Stations






























Interactive Weather Map New forecast layout! Learn more

10-Day Weather Forecast

Advertisements
Track Severe Weather on mobile